createdAt,value
2023-05-17T00:00:52.055Z,11.90
2023-05-17T00:03:19.855Z,13.02
2023-05-17T00:05:47.383Z,10.93
2023-05-17T00:08:14.958Z,9.98
2023-05-17T00:10:43.398Z,14.68
2023-05-17T00:13:11.166Z,14.63
2023-05-17T00:15:38.598Z,8.07
2023-05-17T00:18:06.595Z,12.32
2023-05-17T00:20:34.835Z,8.32
2023-05-17T00:23:03.120Z,6.07
2023-05-17T00:25:31.073Z,8.20
2023-05-17T00:27:58.783Z,9.52
2023-05-17T00:30:26.273Z,7.15
2023-05-17T00:32:54.059Z,6.45
2023-05-17T00:35:21.840Z,8.40
2023-05-17T00:37:49.425Z,10.95
2023-05-17T00:40:17.409Z,9.85
2023-05-17T00:42:44.842Z,8.88
2023-05-17T00:45:12.339Z,7.20
2023-05-17T00:47:41.053Z,6.80
2023-05-17T00:50:08.982Z,7.95
2023-05-17T00:52:36.700Z,6.18
2023-05-17T00:55:04.733Z,5.87
2023-05-17T00:57:32.944Z,10.45
2023-05-17T01:00:02.023Z,6.97
2023-05-17T01:02:32.697Z,8.43
2023-05-17T01:05:00.596Z,15.70
2023-05-17T01:07:29.166Z,8.35
2023-05-17T01:09:57.348Z,12.75
2023-05-17T01:12:37.207Z,10.68
2023-05-17T01:15:13.973Z,9.70
2023-05-17T01:17:59.798Z,14.35
2023-05-17T01:20:44.590Z,7.22
2023-05-17T01:23:36.114Z,6.68
2023-05-17T01:26:09.502Z,13.75
2023-05-17T01:28:41.060Z,7.05
2023-05-17T01:31:09.612Z,8.82
2023-05-17T01:33:38.169Z,10.77
2023-05-17T01:36:06.277Z,8.07
2023-05-17T01:38:34.802Z,7.18
2023-05-17T01:41:09.607Z,7.97
2023-05-17T01:46:32.910Z,8.00
2023-05-17T01:49:13.568Z,13.10
2023-05-17T01:51:48.965Z,7.53
2023-05-17T01:54:22.424Z,8.57
2023-05-17T01:56:56.626Z,6.60
2023-05-17T01:59:25.590Z,15.63
2023-05-17T02:01:57.469Z,9.02
2023-05-17T02:04:25.388Z,8.15
2023-05-17T02:06:53.404Z,10.45
2023-05-17T02:09:21.068Z,12.30
2023-05-17T02:11:49.274Z,5.82
2023-05-17T02:14:17.006Z,10.43
2023-05-17T02:16:44.551Z,8.38
2023-05-17T02:19:14.217Z,5.65
2023-05-17T02:21:41.996Z,8.20
2023-05-17T02:24:09.675Z,7.57
2023-05-17T02:26:37.392Z,9.02
2023-05-17T02:29:05.138Z,9.60
2023-05-17T02:31:32.654Z,7.97
2023-05-17T02:34:00.498Z,7.85
2023-05-17T02:36:28.449Z,7.00
2023-05-17T02:38:55.965Z,11.63
2023-05-17T02:41:23.445Z,6.75
2023-05-17T02:43:51.459Z,6.75
2023-05-17T02:46:18.922Z,8.00
2023-05-17T02:48:46.422Z,8.30
2023-05-17T02:51:14.306Z,6.87
2023-05-17T02:53:41.874Z,8.55
2023-05-17T02:56:09.589Z,12.18
2023-05-17T02:58:37.360Z,4.95
2023-05-17T03:01:05.704Z,8.32
2023-05-17T03:03:33.473Z,10.85
2023-05-17T03:06:02.637Z,8.73
2023-05-17T03:08:30.359Z,5.25
2023-05-17T03:10:58.496Z,6.07
2023-05-17T03:13:26.356Z,6.35
2023-05-17T03:15:53.854Z,7.45
2023-05-17T03:18:21.718Z,7.65
2023-05-17T03:20:49.675Z,8.10
2023-05-17T03:23:18.230Z,6.28
2023-05-17T03:25:46.340Z,8.63
2023-05-17T03:28:14.581Z,9.43
2023-05-17T03:30:42.138Z,7.60
2023-05-17T03:33:09.964Z,6.47
2023-05-17T03:35:37.889Z,7.45
2023-05-17T03:38:05.363Z,8.20
2023-05-17T03:40:33.345Z,9.23
2023-05-17T03:43:01.555Z,7.90
2023-05-17T03:45:29.782Z,8.55
2023-05-17T03:47:57.347Z,10.52
2023-05-17T03:50:26.003Z,7.30
2023-05-17T03:52:53.464Z,13.77
2023-05-17T03:55:20.958Z,6.32
2023-05-17T03:57:49.479Z,6.78
2023-05-17T04:00:21.828Z,6.82
2023-05-17T04:02:50.494Z,13.32
2023-05-17T04:05:19.615Z,7.72
2023-05-17T04:07:47.794Z,8.43
2023-05-17T04:10:15.317Z,9.55
2023-05-17T04:12:43.134Z,6.55
2023-05-17T04:15:11.139Z,6.25
2023-05-17T04:17:39.091Z,6.40
2023-05-17T04:20:07.371Z,6.82
2023-05-17T04:22:35.114Z,16.20
2023-05-17T04:25:02.633Z,6.72
2023-05-17T04:27:30.564Z,7.53
2023-05-17T04:29:58.420Z,10.48
2023-05-17T04:32:26.127Z,6.70
2023-05-17T04:34:54.075Z,6.37
2023-05-17T04:37:21.752Z,11.75
2023-05-17T04:39:49.998Z,8.75
2023-05-17T04:42:17.797Z,10.93
2023-05-17T04:44:45.943Z,10.77
2023-05-17T04:47:14.062Z,10.32
2023-05-17T04:49:41.912Z,8.98
2023-05-17T04:52:09.411Z,6.62
2023-05-17T04:54:36.930Z,5.70
2023-05-17T04:57:05.167Z,7.80
2023-05-17T04:59:34.501Z,5.55
2023-05-17T05:02:02.068Z,6.18
2023-05-17T05:04:30.151Z,5.93
2023-05-17T05:06:57.635Z,8.63
2023-05-17T05:09:25.091Z,4.85
2023-05-17T05:11:53.183Z,7.28
2023-05-17T05:14:21.042Z,5.30
2023-05-17T05:16:49.328Z,8.27
2023-05-17T05:19:17.447Z,8.15
2023-05-17T05:21:46.447Z,7.47
2023-05-17T05:24:14.187Z,10.68
2023-05-17T05:26:42.917Z,7.30
2023-05-17T05:29:10.633Z,11.23
2023-05-17T05:31:39.181Z,11.18
2023-05-17T05:34:07.649Z,9.35
2023-05-17T05:36:35.248Z,11.40
2023-05-17T05:39:02.837Z,11.15
2023-05-17T05:41:31.426Z,14.60
2023-05-17T05:43:59.456Z,15.55
2023-05-17T05:46:27.045Z,6.72
2023-05-17T05:48:55.005Z,9.60
2023-05-17T05:51:22.861Z,11.85
2023-05-17T05:53:51.486Z,7.20
2023-05-17T05:56:20.126Z,7.03
2023-05-17T05:58:47.599Z,11.15
2023-05-17T06:01:15.091Z,11.68
2023-05-17T06:03:42.812Z,9.68
2023-05-17T06:06:10.864Z,8.60
2023-05-17T06:08:38.563Z,8.45
2023-05-17T06:11:06.388Z,7.72
2023-05-17T06:13:33.863Z,10.07
2023-05-17T06:16:01.377Z,9.10
2023-05-17T06:18:29.275Z,6.07
2023-05-17T06:20:56.773Z,8.93
2023-05-17T06:23:24.516Z,9.23
2023-05-17T06:25:52.686Z,8.13
2023-05-17T06:28:20.210Z,9.68
2023-05-17T06:30:47.857Z,6.80
2023-05-17T06:33:15.940Z,11.45
2023-05-17T06:35:55.675Z,7.72
2023-05-17T06:38:25.377Z,6.37
2023-05-17T06:40:55.878Z,7.53
2023-05-17T06:43:23.389Z,6.35
2023-05-17T06:45:51.470Z,7.95
2023-05-17T06:48:19.232Z,7.20
2023-05-17T06:50:46.859Z,10.75
2023-05-17T06:53:14.626Z,6.50
2023-05-17T06:55:43.162Z,13.20
2023-05-17T06:58:10.743Z,12.18
2023-05-17T07:00:38.509Z,8.75
2023-05-17T07:03:06.101Z,8.15
2023-05-17T07:05:34.091Z,7.93
2023-05-17T07:08:02.165Z,9.13
2023-05-17T07:10:29.762Z,10.38
2023-05-17T07:12:57.242Z,10.52
2023-05-17T07:15:25.155Z,5.87
2023-05-17T07:17:52.648Z,8.70
2023-05-17T07:20:20.635Z,10.40
2023-05-17T07:22:48.584Z,7.97
2023-05-17T07:25:18.082Z,10.00
2023-05-17T07:27:47.916Z,6.30
2023-05-17T07:30:15.691Z,8.02
2023-05-17T07:32:43.275Z,7.62
2023-05-17T07:35:11.004Z,8.02
2023-05-17T07:37:38.734Z,11.77
2023-05-17T07:40:06.956Z,7.40
2023-05-17T07:42:34.526Z,5.72
2023-05-17T07:45:02.476Z,5.20
2023-05-17T07:47:30.857Z,6.55
2023-05-17T07:49:58.375Z,5.90
2023-05-17T07:52:26.147Z,5.15
2023-05-17T07:54:53.596Z,5.68
2023-05-17T07:57:21.309Z,7.55
2023-05-17T07:59:49.069Z,5.22
2023-05-17T08:02:16.602Z,4.75
2023-05-17T08:04:45.332Z,5.07
2023-05-17T08:07:12.812Z,6.50
2023-05-17T08:09:41.404Z,5.25
2023-05-17T08:12:09.194Z,5.75
2023-05-17T08:14:36.706Z,4.15
2023-05-17T08:17:04.457Z,8.77
2023-05-17T08:19:32.385Z,6.12
2023-05-17T08:21:59.934Z,9.25
2023-05-17T08:24:27.528Z,5.50
2023-05-17T08:26:55.295Z,4.45
2023-05-17T08:29:22.817Z,14.18
2023-05-17T08:31:51.691Z,6.50
2023-05-17T08:34:19.471Z,6.25
2023-05-17T08:36:47.628Z,6.05
2023-05-17T08:39:15.539Z,5.80
2023-05-17T08:41:43.339Z,8.20
2023-05-17T08:44:11.093Z,8.30
2023-05-17T08:46:40.012Z,8.40
2023-05-17T08:49:08.521Z,11.15
2023-05-17T08:51:36.551Z,5.32
2023-05-17T08:54:08.448Z,4.72
2023-05-17T08:56:39.530Z,6.43
2023-05-17T08:59:10.412Z,4.37
2023-05-17T09:01:43.495Z,4.30
2023-05-17T09:04:11.313Z,4.45
2023-05-17T09:06:39.104Z,10.10
2023-05-17T09:09:09.136Z,5.90
2023-05-17T09:11:36.649Z,4.07
2023-05-17T09:14:05.954Z,3.42
2023-05-17T09:16:37.546Z,8.07
2023-05-17T09:19:07.502Z,4.93
2023-05-17T09:21:37.313Z,5.32
2023-05-17T09:24:08.042Z,5.75
2023-05-17T09:26:39.243Z,5.82
2023-05-17T09:29:14.437Z,3.97
2023-05-17T09:31:42.684Z,6.10
2023-05-17T09:34:10.694Z,5.15
2023-05-17T09:36:42.217Z,4.57
2023-05-17T09:39:12.892Z,3.78
2023-05-17T09:41:43.625Z,6.93
2023-05-17T09:44:12.237Z,4.07
2023-05-17T09:46:45.519Z,5.72
2023-05-17T09:49:14.141Z,6.10
2023-05-17T09:51:43.126Z,5.20
2023-05-17T09:54:11.384Z,5.87
2023-05-17T09:56:39.448Z,6.47
2023-05-17T09:59:15.400Z,5.78
2023-05-17T10:01:45.331Z,8.32
2023-05-17T10:04:13.969Z,4.32
2023-05-17T10:09:14.279Z,10.15
2023-05-17T10:11:44.287Z,5.00
2023-05-17T10:14:24.997Z,6.25
2023-05-17T10:16:53.670Z,5.95
2023-05-17T10:19:21.754Z,6.90
2023-05-17T10:21:51.180Z,3.55
2023-05-17T10:24:21.583Z,4.90
2023-05-17T10:26:52.207Z,7.18
2023-05-17T10:29:21.376Z,5.18
2023-05-17T10:31:51.183Z,5.35
2023-05-17T10:34:20.089Z,5.43
2023-05-17T10:36:50.047Z,4.80
2023-05-17T10:39:18.088Z,7.18
2023-05-17T10:41:46.876Z,5.72
2023-05-17T10:44:16.408Z,4.97
2023-05-17T10:46:57.624Z,4.18
2023-05-17T10:49:29.865Z,5.40
2023-05-17T10:52:18.443Z,6.22
2023-05-17T10:54:49.445Z,5.55
2023-05-17T10:57:49.121Z,3.65
2023-05-17T11:00:22.021Z,8.35
2023-05-17T11:02:50.903Z,3.08
2023-05-17T11:05:26.168Z,3.87
2023-05-17T11:08:13.048Z,3.20
2023-05-17T11:11:10.498Z,3.62
2023-05-17T11:13:52.223Z,3.85
2023-05-17T11:16:28.671Z,3.70
2023-05-17T11:18:58.455Z,3.50
2023-05-17T11:21:28.513Z,9.32
2023-05-17T11:24:01.601Z,4.30
2023-05-17T11:26:34.629Z,4.25
2023-05-17T11:29:12.389Z,5.57
2023-05-17T11:31:44.967Z,3.45
2023-05-17T11:34:12.615Z,3.55
2023-05-17T11:36:51.876Z,2.30
2023-05-17T11:39:22.137Z,2.95
2023-05-17T11:41:51.697Z,2.97
2023-05-17T11:44:29.569Z,2.92
2023-05-17T11:47:02.930Z,5.25
2023-05-17T11:49:35.624Z,3.92
2023-05-17T11:52:05.696Z,6.22
2023-05-17T11:54:33.839Z,3.15
2023-05-17T11:57:03.883Z,5.55
2023-05-17T11:59:39.889Z,4.85
2023-05-17T12:02:07.735Z,5.65
2023-05-17T12:04:39.882Z,5.05
2023-05-17T12:07:11.216Z,3.10
2023-05-17T12:09:39.784Z,9.68
2023-05-17T12:12:08.644Z,5.53
2023-05-17T12:14:36.659Z,3.58
2023-05-17T12:17:08.780Z,5.32
2023-05-17T12:19:37.401Z,10.73
2023-05-17T12:22:12.494Z,4.25
2023-05-17T12:24:42.449Z,3.10
2023-05-17T12:27:10.669Z,3.22
2023-05-17T12:29:39.137Z,4.12
2023-05-17T12:32:08.753Z,3.80
2023-05-17T12:34:37.037Z,3.10
2023-05-17T12:37:10.192Z,2.90
2023-05-17T12:39:38.180Z,4.07
2023-05-17T12:42:06.134Z,3.45
2023-05-17T12:44:33.721Z,2.62
2023-05-17T12:47:02.951Z,3.03
2023-05-17T12:49:30.498Z,3.92
2023-05-17T12:52:04.354Z,2.72
2023-05-17T12:54:33.185Z,3.95
2023-05-17T12:57:12.572Z,5.18
2023-05-17T12:59:48.208Z,3.50
2023-05-17T13:02:16.266Z,4.62
2023-05-17T13:04:44.316Z,5.00
2023-05-17T13:07:12.450Z,4.68
2023-05-17T13:09:49.862Z,7.07
2023-05-17T13:12:22.866Z,3.35
2023-05-17T13:14:53.179Z,4.12
2023-05-17T13:17:35.147Z,5.10
2023-05-17T13:20:03.473Z,3.47
2023-05-17T13:22:31.484Z,3.80
2023-05-17T13:24:58.947Z,2.40
2023-05-17T13:27:26.372Z,3.08
2023-05-17T13:29:54.115Z,3.28
2023-05-17T13:32:21.818Z,3.22
2023-05-17T13:34:49.425Z,3.62
2023-05-17T13:37:17.283Z,10.23
2023-05-17T13:39:44.827Z,3.78
2023-05-17T13:42:12.932Z,4.80
2023-05-17T13:44:40.878Z,2.97
2023-05-17T13:47:08.439Z,2.85
2023-05-17T13:49:36.237Z,3.40
2023-05-17T13:52:04.139Z,5.40
2023-05-17T13:54:31.689Z,5.85
2023-05-17T13:56:59.339Z,6.12
2023-05-17T13:59:27.287Z,3.22
2023-05-17T14:01:54.782Z,3.20
2023-05-17T14:04:22.718Z,4.80
2023-05-17T14:06:54.793Z,3.83
2023-05-17T14:09:34.561Z,3.08
2023-05-17T14:12:02.182Z,3.28
2023-05-17T14:14:30.522Z,2.50
2023-05-17T14:16:58.075Z,2.05
2023-05-17T14:19:25.844Z,1.55
2023-05-17T14:21:53.757Z,2.35
2023-05-17T14:24:21.240Z,3.12
2023-05-17T14:26:48.781Z,3.00
2023-05-17T14:29:16.885Z,2.33
2023-05-17T14:31:44.350Z,3.17
2023-05-17T14:34:14.373Z,3.95
2023-05-17T14:36:42.220Z,3.40
2023-05-17T14:39:10.452Z,2.95
2023-05-17T14:41:39.364Z,2.22
2023-05-17T14:44:07.164Z,4.87
2023-05-17T14:46:35.005Z,3.33
2023-05-17T14:49:02.566Z,10.15
2023-05-17T14:51:30.556Z,2.50
2023-05-17T14:53:59.136Z,4.65
2023-05-17T14:56:27.772Z,1.95
2023-05-17T14:58:55.545Z,2.47
2023-05-17T15:01:23.323Z,2.47
2023-05-17T15:03:51.284Z,2.30
2023-05-17T15:06:24.781Z,1.30
2023-05-17T15:08:52.725Z,3.35
2023-05-17T15:11:21.864Z,3.70
2023-05-17T15:13:49.390Z,3.72
2023-05-17T15:16:16.892Z,2.83
2023-05-17T15:18:44.749Z,19.48
2023-05-17T15:21:12.286Z,2.33
2023-05-17T15:23:39.798Z,2.47
2023-05-17T15:26:07.709Z,2.17
2023-05-17T15:28:35.168Z,1.10
2023-05-17T15:31:06.276Z,1.17
2023-05-17T15:33:34.136Z,1.70
2023-05-17T15:36:01.764Z,2.30
2023-05-17T15:38:29.221Z,3.90
2023-05-17T15:41:07.524Z,1.08
2023-05-17T15:43:35.165Z,0.88
2023-05-17T15:46:02.877Z,1.08
2023-05-17T15:48:30.684Z,1.23
2023-05-17T15:50:58.646Z,2.17
2023-05-17T15:53:27.276Z,1.02
2023-05-17T15:55:55.142Z,1.67
2023-05-17T15:58:24.244Z,1.50
2023-05-17T16:00:51.967Z,3.12
2023-05-17T16:03:19.788Z,8.40
2023-05-17T16:05:47.508Z,2.50
2023-05-17T16:08:15.026Z,1.85
2023-05-17T16:10:42.864Z,5.28
2023-05-17T16:13:10.293Z,1.25
2023-05-17T16:15:37.865Z,0.80
2023-05-17T16:18:05.706Z,2.08
2023-05-17T16:20:33.874Z,3.45
2023-05-17T16:23:01.356Z,2.62
2023-05-17T16:25:29.337Z,2.83
2023-05-17T16:28:14.492Z,1.30
2023-05-17T16:30:42.308Z,2.72
2023-05-17T16:33:09.924Z,1.25
2023-05-17T16:35:37.486Z,5.03
2023-05-17T16:38:05.304Z,1.37
2023-05-17T16:40:33.057Z,1.75
2023-05-17T16:43:00.580Z,1.20
2023-05-17T16:45:28.437Z,1.30
2023-05-17T16:47:56.210Z,2.83
2023-05-17T16:50:23.802Z,0.77
2023-05-17T16:52:51.897Z,1.65
2023-05-17T16:55:19.444Z,2.00
2023-05-17T16:57:46.910Z,2.45
2023-05-17T17:00:15.077Z,1.75
2023-05-17T17:02:42.553Z,2.28
2023-05-17T17:05:10.501Z,1.95
2023-05-17T17:07:38.280Z,0.73
2023-05-17T17:10:06.359Z,0.80
2023-05-17T17:12:33.830Z,1.50
2023-05-17T17:15:02.272Z,1.37
2023-05-17T17:17:30.241Z,1.15
2023-05-17T17:19:57.806Z,1.00
2023-05-17T17:22:25.647Z,1.30
2023-05-17T17:24:53.483Z,1.08
2023-05-17T17:27:20.985Z,1.00
2023-05-17T17:29:48.778Z,0.90
2023-05-17T17:32:16.475Z,0.82
2023-05-17T17:34:44.073Z,1.30
2023-05-17T17:37:11.878Z,1.37
2023-05-17T17:39:39.509Z,0.40
2023-05-17T17:42:07.044Z,1.30
2023-05-17T17:44:35.058Z,2.17
2023-05-17T17:47:02.581Z,1.30
2023-05-17T17:49:30.313Z,1.95
2023-05-17T17:51:58.316Z,0.77
2023-05-17T17:54:26.040Z,0.75
2023-05-17T17:56:53.511Z,2.28
2023-05-17T17:59:21.398Z,1.83
2023-05-17T18:01:49.174Z,1.12
2023-05-17T18:04:16.940Z,0.90
2023-05-17T18:06:45.894Z,2.28
2023-05-17T18:09:13.386Z,1.05
2023-05-17T18:11:41.168Z,1.12
2023-05-17T18:14:08.946Z,1.00
2023-05-17T18:16:36.493Z,2.37
2023-05-17T18:19:04.686Z,2.53
2023-05-17T18:21:32.398Z,12.82
2023-05-17T18:24:00.455Z,0.98
2023-05-17T18:26:28.343Z,2.22
2023-05-17T18:28:55.968Z,2.50
2023-05-17T18:31:23.438Z,5.10
2023-05-17T18:33:51.314Z,1.15
2023-05-17T18:36:19.098Z,1.87
2023-05-17T18:38:46.773Z,5.03
2023-05-17T18:41:14.833Z,1.85
2023-05-17T18:43:42.371Z,3.28
2023-05-17T18:46:10.447Z,1.85
2023-05-17T18:48:39.148Z,2.47
2023-05-17T18:51:06.958Z,2.92
2023-05-17T18:53:36.167Z,2.62
2023-05-17T18:56:04.506Z,3.12
2023-05-17T18:58:32.153Z,2.40
2023-05-17T19:01:01.594Z,2.85
2023-05-17T19:03:29.913Z,1.85
2023-05-17T19:05:57.505Z,2.90
2023-05-17T19:08:25.422Z,3.20
2023-05-17T19:10:53.177Z,2.47
2023-05-17T19:13:20.705Z,3.42
2023-05-17T19:15:48.558Z,2.30
2023-05-17T19:18:16.540Z,1.75
2023-05-17T19:20:44.188Z,1.60
2023-05-17T19:23:12.181Z,2.95
2023-05-17T19:25:40.412Z,2.70
2023-05-17T19:28:11.798Z,1.67
2023-05-17T19:30:39.348Z,1.35
2023-05-17T19:33:07.466Z,2.65
2023-05-17T19:35:37.135Z,2.83
2023-05-17T19:38:04.859Z,4.60
2023-05-17T19:40:32.844Z,2.05
2023-05-17T19:43:02.121Z,3.08
2023-05-17T19:45:29.678Z,3.10
2023-05-17T19:47:57.936Z,2.40
2023-05-17T19:50:25.601Z,12.85
2023-05-17T19:53:01.018Z,2.35
2023-05-17T19:55:30.422Z,2.72
2023-05-17T19:57:58.094Z,2.12
2023-05-17T20:00:25.957Z,2.28
2023-05-17T20:02:54.341Z,3.42
2023-05-17T20:05:22.194Z,2.95
2023-05-17T20:07:49.693Z,2.33
2023-05-17T20:10:17.710Z,1.77
2023-05-17T20:12:45.240Z,1.65
2023-05-17T20:15:12.898Z,1.80
2023-05-17T20:17:40.796Z,2.08
2023-05-17T20:20:08.880Z,2.92
2023-05-17T20:22:37.782Z,5.07
2023-05-17T20:25:06.036Z,2.65
2023-05-17T20:27:33.540Z,1.67
2023-05-17T20:30:01.068Z,1.52
2023-05-17T20:32:29.249Z,1.33
2023-05-17T20:34:56.803Z,1.90
2023-05-17T20:37:24.463Z,3.33
2023-05-17T20:39:53.652Z,1.55
2023-05-17T20:42:22.427Z,2.55
2023-05-17T20:44:53.537Z,1.65
2023-05-17T20:47:22.633Z,2.62
2023-05-17T20:49:50.440Z,1.70
2023-05-17T20:52:27.779Z,1.75
2023-05-17T20:55:08.062Z,2.05
2023-05-17T20:57:35.758Z,4.90
2023-05-17T21:00:05.387Z,2.53
2023-05-17T21:02:33.634Z,1.58
2023-05-17T21:05:03.335Z,1.35
2023-05-17T21:07:31.605Z,2.62
2023-05-17T21:09:59.416Z,2.00
2023-05-17T21:12:26.897Z,2.83
2023-05-17T21:15:14.408Z,2.60
2023-05-17T21:17:42.388Z,2.62
2023-05-17T21:20:10.450Z,1.65
2023-05-17T21:22:38.084Z,1.02
2023-05-17T21:25:06.285Z,2.03
2023-05-17T21:27:34.164Z,1.20
2023-05-17T21:30:01.643Z,3.80
2023-05-17T21:32:30.006Z,2.05
2023-05-17T21:34:59.654Z,2.10
2023-05-17T21:37:27.311Z,2.53
2023-05-17T21:39:55.107Z,2.97
2023-05-17T21:42:22.633Z,1.02
2023-05-17T21:44:50.108Z,4.15
2023-05-17T21:47:17.819Z,2.28
2023-05-17T21:49:45.464Z,4.28
2023-05-17T21:52:12.970Z,0.90
2023-05-17T21:54:41.406Z,0.85
2023-05-17T21:57:08.913Z,4.12
2023-05-17T21:59:36.554Z,1.65
2023-05-17T22:02:04.468Z,1.35
2023-05-17T22:04:32.253Z,2.87
2023-05-17T22:06:59.795Z,1.98
2023-05-17T22:09:27.303Z,2.60
2023-05-17T22:11:58.731Z,4.65
2023-05-17T22:14:27.454Z,2.83
2023-05-17T22:16:56.715Z,2.10
2023-05-17T22:19:24.756Z,3.15
2023-05-17T22:21:52.306Z,1.35
2023-05-17T22:24:20.502Z,1.60
2023-05-17T22:26:47.970Z,2.47
2023-05-17T22:29:15.488Z,1.02
2023-05-17T22:31:43.285Z,2.03
2023-05-17T22:34:10.948Z,0.65
2023-05-17T22:36:42.287Z,1.35
2023-05-17T22:39:10.090Z,2.15
2023-05-17T22:41:37.667Z,2.72
2023-05-17T22:44:05.234Z,1.25
2023-05-17T22:46:33.367Z,5.05
2023-05-17T22:49:01.666Z,1.30
2023-05-17T22:51:30.169Z,2.95
2023-05-17T22:53:58.103Z,1.52
2023-05-17T22:56:26.235Z,1.45
2023-05-17T22:58:53.734Z,1.83
2023-05-17T23:01:21.513Z,3.75
2023-05-17T23:03:49.001Z,3.45
2023-05-17T23:06:16.706Z,2.47
2023-05-17T23:08:45.462Z,0.93
2023-05-17T23:11:13.878Z,9.05
2023-05-17T23:13:42.088Z,0.85
2023-05-17T23:16:10.742Z,1.05
2023-05-17T23:18:40.222Z,1.15
2023-05-17T23:21:08.293Z,1.23
2023-05-17T23:23:38.113Z,1.87
2023-05-17T23:26:06.058Z,0.73
2023-05-17T23:28:33.547Z,2.62
2023-05-17T23:31:02.383Z,0.62
2023-05-17T23:33:31.377Z,1.85
2023-05-17T23:35:58.945Z,2.72
2023-05-17T23:38:26.767Z,2.53
2023-05-17T23:40:54.432Z,1.95
2023-05-17T23:43:22.000Z,2.45
2023-05-17T23:45:49.741Z,1.65
2023-05-17T23:48:20.773Z,1.77
2023-05-17T23:50:48.321Z,2.67
2023-05-17T23:53:18.586Z,2.20
2023-05-17T23:55:46.221Z,1.80
2023-05-17T23:58:13.658Z,1.60
